createdAt,value
2019-05-22T00:04:05.778Z,101196.34
2019-05-22T00:10:15.400Z,101199.83
2019-05-22T00:16:24.440Z,101192.80
2019-05-22T00:22:33.795Z,101196.79
2019-05-22T00:28:40.652Z,101195.10
2019-05-22T00:34:47.167Z,101200.33
2019-05-22T00:40:57.803Z,101202.95
2019-05-22T00:47:05.630Z,101200.30
2019-05-22T00:53:30.113Z,101210.91
2019-05-22T00:59:41.020Z,101210.48
2019-05-22T01:05:50.784Z,101216.62
2019-05-22T01:11:56.696Z,101219.31
2019-05-22T01:18:10.437Z,101224.58
2019-05-22T01:24:17.114Z,101224.58
2019-05-22T01:30:46.169Z,101225.90
2019-05-22T01:36:56.611Z,101234.70
2019-05-22T01:43:03.835Z,101229.81
2019-05-22T01:49:12.379Z,101228.04
2019-05-22T01:55:21.075Z,101231.11
2019-05-22T02:01:30.602Z,101236.84
2019-05-22T02:07:38.197Z,101239.52
2019-05-22T02:13:52.068Z,101238.67
2019-05-22T02:19:59.130Z,101241.31
2019-05-22T02:26:08.522Z,101254.09
2019-05-22T02:32:15.262Z,101255.45
2019-05-22T02:38:21.431Z,101262.56
2019-05-22T02:44:30.298Z,101262.17
2019-05-22T02:50:37.892Z,101269.64
2019-05-22T02:56:43.940Z,101277.14
2019-05-22T03:02:53.818Z,101284.20
2019-05-22T03:09:23.400Z,101290.82
2019-05-22T03:15:29.990Z,101298.73
2019-05-22T03:21:36.562Z,101297.84
2019-05-22T03:27:46.013Z,101294.33
2019-05-22T03:33:52.699Z,101300.95
2019-05-22T03:39:58.985Z,101303.16
2019-05-22T03:46:21.049Z,101312.39
2019-05-22T03:52:33.036Z,101314.14
2019-05-22T03:58:38.870Z,101315.92
2019-05-22T04:04:45.256Z,101321.64
2019-05-22T04:11:05.250Z,101315.02
2019-05-22T04:17:13.453Z,101330.89
2019-05-22T04:23:20.271Z,101331.34
2019-05-22T04:29:26.514Z,101340.11
2019-05-22T04:35:35.099Z,101344.97
2019-05-22T04:41:41.698Z,101348.48
2019-05-22T04:47:58.587Z,101358.64
2019-05-22T04:54:04.503Z,101358.61
2019-05-22T05:00:11.903Z,101360.38
2019-05-22T05:06:20.062Z,101360.39
2019-05-22T05:12:27.024Z,101358.17
2019-05-22T05:18:33.509Z,101366.98
2019-05-22T05:24:39.706Z,101371.40
2019-05-22T05:30:46.591Z,101376.67
2019-05-22T05:36:54.996Z,101379.33
2019-05-22T05:43:01.872Z,101378.42
2019-05-22T05:49:09.735Z,101388.11
2019-05-22T05:55:16.000Z,101391.19
2019-05-22T06:01:28.699Z,101390.31
2019-05-22T06:07:34.997Z,101400.45
2019-05-22T06:13:41.666Z,101403.11
2019-05-22T06:19:51.137Z,101407.95
2019-05-22T06:25:58.731Z,101411.02
2019-05-22T06:33:18.155Z,101416.30
2019-05-22T06:39:24.362Z,101425.55
2019-05-22T06:45:30.329Z,101426.42
2019-05-22T06:51:36.374Z,101429.08
2019-05-22T06:57:42.580Z,101431.27
2019-05-22T07:03:48.670Z,101435.67
2019-05-22T07:09:57.333Z,101438.28
2019-05-22T07:16:04.780Z,101438.69
2019-05-22T07:22:10.917Z,101449.28
2019-05-22T07:28:19.469Z,101449.23
2019-05-22T07:34:26.365Z,101450.53
2019-05-22T07:40:33.777Z,101453.23
2019-05-22T07:46:41.286Z,101457.61
2019-05-22T07:52:48.163Z,101461.11
2019-05-22T07:58:58.891Z,101462.47
2019-05-22T08:05:06.303Z,101466.34
2019-05-22T08:11:13.567Z,101464.08
2019-05-22T08:17:21.677Z,101463.05
2019-05-22T08:23:29.682Z,101458.16
2019-05-22T08:29:35.909Z,101451.38
2019-05-22T08:35:42.535Z,101452.62
2019-05-22T08:41:49.454Z,101455.61
2019-05-22T08:47:55.370Z,101464.80
2019-05-22T08:54:05.802Z,101466.91
2019-05-22T09:00:12.600Z,101468.34
2019-05-22T09:06:18.624Z,101468.12
2019-05-22T09:12:25.748Z,101462.11
2019-05-22T09:18:32.357Z,101471.47
2019-05-22T09:24:39.126Z,101473.03
2019-05-22T09:30:45.246Z,101476.97
2019-05-22T09:36:51.367Z,101467.77
2019-05-22T09:42:57.377Z,101467.05
2019-05-22T09:49:04.144Z,101466.47
2019-05-22T09:55:11.086Z,101462.53
2019-05-22T10:01:17.678Z,101472.45
2019-05-22T10:07:23.627Z,101479.34
2019-05-22T10:13:29.574Z,101475.02
2019-05-22T10:19:37.245Z,101488.61
2019-05-22T10:25:43.115Z,101476.63
2019-05-22T10:31:49.119Z,101473.78
2019-05-22T10:37:55.928Z,101476.19
2019-05-22T10:44:02.492Z,101482.70
2019-05-22T10:50:08.748Z,101480.41
2019-05-22T10:56:14.740Z,101474.02
2019-05-22T11:02:21.298Z,101463.04
2019-05-22T11:08:31.819Z,101466.59
2019-05-22T11:14:35.898Z,101451.55
2019-05-22T11:20:42.015Z,101454.16
2019-05-22T11:26:48.063Z,101464.63
2019-05-22T11:32:55.765Z,101453.89
2019-05-22T11:39:02.001Z,101457.64
2019-05-22T11:45:09.225Z,101453.26
2019-05-22T11:51:15.780Z,101446.39
2019-05-22T11:57:22.614Z,101434.58
2019-05-22T12:03:30.953Z,101441.56
2019-05-22T12:09:37.233Z,101433.70
2019-05-22T12:15:43.531Z,101435.91
2019-05-22T12:21:51.196Z,101437.69
2019-05-22T12:27:57.400Z,101431.91
2019-05-22T12:34:03.937Z,101431.53
2019-05-22T12:40:15.832Z,101419.07
2019-05-22T12:46:22.167Z,101424.44
2019-05-22T12:52:28.376Z,101421.92
2019-05-22T12:58:35.010Z,101411.59
2019-05-22T13:04:41.167Z,101421.95
2019-05-22T13:10:48.537Z,101408.42
2019-05-22T13:16:54.555Z,101412.50
2019-05-22T13:23:02.123Z,101404.33
2019-05-22T13:29:09.601Z,101409.48
2019-05-22T13:35:17.797Z,101408.66
2019-05-22T13:41:23.924Z,101402.75
2019-05-22T13:47:29.885Z,101401.91
2019-05-22T13:53:36.656Z,101390.83
2019-05-22T13:59:42.724Z,101398.63
2019-05-22T14:05:50.135Z,101398.11
2019-05-22T14:11:56.986Z,101395.86
2019-05-22T14:18:03.426Z,101395.45
2019-05-22T14:24:12.109Z,101383.03
2019-05-22T14:30:19.889Z,101375.41
2019-05-22T14:36:26.387Z,101367.44
2019-05-22T14:42:32.439Z,101367.78
2019-05-22T14:48:40.479Z,101374.23
2019-05-22T14:54:46.554Z,101373.86
2019-05-22T15:00:58.553Z,101381.19
2019-05-22T15:07:06.156Z,101371.55
2019-05-22T15:13:12.507Z,101377.59
2019-05-22T15:19:19.116Z,101379.23
2019-05-22T15:25:28.635Z,101368.25
2019-05-22T15:31:34.527Z,101363.52
2019-05-22T15:37:40.808Z,101363.31
2019-05-22T15:43:52.474Z,101363.34
2019-05-22T15:49:56.977Z,101358.63
2019-05-22T15:56:07.410Z,101357.72
2019-05-22T16:02:15.420Z,101354.53
2019-05-22T16:08:21.910Z,101349.25
2019-05-22T16:14:31.524Z,101351.10
2019-05-22T16:20:39.879Z,101361.51
2019-05-22T16:26:47.176Z,101362.89
2019-05-22T16:32:54.646Z,101356.50
2019-05-22T16:39:02.393Z,101349.63
2019-05-22T16:45:09.415Z,101341.72
2019-05-22T16:51:17.791Z,101336.34
2019-05-22T16:57:25.775Z,101334.41
2019-05-22T17:03:32.345Z,101333.47
2019-05-22T17:09:40.829Z,101329.49
2019-05-22T17:15:47.400Z,101337.64
2019-05-22T17:21:53.915Z,101337.29
2019-05-22T17:27:59.867Z,101343.75
2019-05-22T17:34:07.974Z,101343.47
2019-05-22T17:40:16.217Z,101341.77
2019-05-22T17:46:23.251Z,101341.25
2019-05-22T17:52:30.154Z,101342.11
2019-05-22T17:58:36.187Z,101338.44
2019-05-22T18:04:42.112Z,101337.58
2019-05-22T18:10:51.186Z,101341.47
2019-05-22T18:16:57.060Z,101330.36
2019-05-22T18:23:03.275Z,101338.56
2019-05-22T18:29:09.703Z,101339.55
2019-05-22T18:35:17.059Z,101338.25
2019-05-22T18:41:22.993Z,101337.12
2019-05-22T18:47:29.383Z,101339.63
2019-05-22T18:53:36.041Z,101343.21
2019-05-22T18:59:41.902Z,101338.59
2019-05-22T19:05:48.495Z,101344.45
2019-05-22T19:11:54.415Z,101352.42
2019-05-22T19:18:00.330Z,101351.84
2019-05-22T19:24:06.568Z,101365.48
2019-05-22T19:30:15.393Z,101365.47
2019-05-22T19:36:21.549Z,101374.67
2019-05-22T19:42:27.802Z,101380.33
2019-05-22T19:48:34.097Z,101392.36
2019-05-22T19:54:40.673Z,101387.05
2019-05-22T20:00:47.883Z,101399.83
2019-05-22T20:06:54.259Z,101405.38
2019-05-22T20:13:00.479Z,101408.38
2019-05-22T20:19:06.431Z,101408.17
2019-05-22T20:25:12.791Z,101404.66
2019-05-22T20:31:19.387Z,101413.42
2019-05-22T20:37:25.365Z,101422.02
2019-05-22T20:43:33.117Z,101416.44
2019-05-22T20:49:42.125Z,101425.92
2019-05-22T20:55:49.685Z,101419.14
2019-05-22T21:01:55.632Z,101421.50
2019-05-22T21:08:10.358Z,101425.59
2019-05-22T21:14:16.189Z,101438.86
2019-05-22T21:20:23.854Z,101438.03
2019-05-22T21:26:30.262Z,101445.19
2019-05-22T21:32:37.711Z,101439.47
2019-05-22T21:38:44.163Z,101447.05
2019-05-22T21:44:50.698Z,101437.83
2019-05-22T21:50:57.155Z,101435.31
2019-05-22T21:57:04.686Z,101439.45
2019-05-22T22:03:12.120Z,101446.17
2019-05-22T22:09:20.158Z,101447.98
2019-05-22T22:15:26.920Z,101449.01
2019-05-22T22:21:33.627Z,101465.41
2019-05-22T22:27:39.880Z,101459.30
2019-05-22T22:33:52.617Z,101464.22
2019-05-22T22:40:00.523Z,101466.41
2019-05-22T22:46:12.993Z,101467.34
2019-05-22T22:52:21.209Z,101473.50
2019-05-22T22:58:28.536Z,101470.86
2019-05-22T23:04:35.420Z,101471.77
2019-05-22T23:10:43.069Z,101473.11
2019-05-22T23:16:50.229Z,101463.86
2019-05-22T23:22:53.659Z,101463.86
2019-05-22T23:29:00.162Z,101459.91
2019-05-22T23:35:07.579Z,101462.12
2019-05-22T23:41:15.518Z,101466.53
2019-05-22T23:47:22.199Z,101475.33
2019-05-22T23:53:28.412Z,101468.26
2019-05-22T23:59:36.897Z,101459.03
